Flight Track Log - Related Links

Times and Time Zones

All times are in EDT time to prevent confusion due to time zone crossing. See the EJA365 flight status page for this flight to view local times or setup timezone preferences in your user account.

Time Position Orientation Groundspeed Altitude Reporting Facility
EDT Latitude Longitude Course Direction KTS MPH feet Rate Location/Type
Thu 06:37:39 AM 39.8789 -75.1875 115° Southeast 172 198 1,700  Level FAA TRACON SMA TRACON (SMA)
Thu 06:37:58 AM 39.8725 -75.1694 115° Southeast 185 213 2,700 3,600 Climbing FAA TRACON SMA TRACON (SMA)
Thu 06:38:19 AM 39.8631 -75.1408 113° Southeast 223 257 4,100 2,850 Climbing FAA TRACON SMA TRACON (SMA)
Thu 06:38:38 AM 39.8519 -75.1164 121° Southeast 262 302 4,600 1,350 Climbing FAA TRACON SMA TRACON (SMA)
Thu 06:38:59 AM 39.8336 -75.1047 154° Southeast 254 292 5,000 2,780 Climbing FAA TRACON SMA TRACON (SMA)
Thu 06:39:19 AM 39.8064 -75.1072 184° South 268 308 6,500 4,800 Climbing FAA TRACON SMA TRACON (SMA)
Thu 06:39:39 AM 39.7839 -75.1231 208° Southwest 261 300 8,200 4,800 Climbing FAA TRACON SMA TRACON (SMA)
Thu 06:39:59 AM 39.7642 -75.1378 210° Southwest 263 303 9,700 3,512 Climbing FAA TRACON SMA TRACON (SMA)
Thu 06:40:20 AM 39.7383 -75.1564 209° Southwest 287 330 10,600 2,250 Climbing FAA TRACON SMA TRACON (SMA)
Thu 06:40:39 AM 39.7197 -75.1700 209° Southwest 313 360 11,200 1,846 Climbing FAA TRACON SMA TRACON (SMA)
Thu 06:40:59 AM 39.6900 -75.1917 209° Southwest 324 373 11,800 1,538 Climbing FAA TRACON SMA TRACON (SMA)
Thu 06:41:18 AM 39.6650 -75.2097 209° Southwest 326 375 12,200 2,250 Climbing FAA TRACON SMA TRACON (SMA)
Thu 06:41:39 AM 39.6336 -75.2333 210° Southwest 333 383 13,300 3,000 Climbing FAA TRACON SMA TRACON (SMA)
Thu 06:41:58 AM 39.6081 -75.2517 209° Southwest 338 389 14,200 2,400 Climbing FAA TRACON SMA TRACON (SMA)
Thu 06:42:19 AM 39.5822 -75.2708 210° Southwest 343 395 14,900 1,756 Climbing FAA TRACON SMA TRACON (SMA)
Thu 06:42:39 AM 39.5494 -75.2942 209° Southwest 362 417 15,400 1,350 Climbing FAA TRACON SMA TRACON (SMA)
Thu 06:42:59 AM 39.5217 -75.3133 208° Southwest 355 409 15,800 900 Climbing FAA TRACON SMA TRACON (SMA)
Thu 06:43:19 AM 39.4931 -75.3278 201° Southwest 352 405 16,000 900 Climbing FAA TRACON SMA TRACON (SMA)
Thu 06:43:39 AM 39.4542 -75.3367 190° South 365 420 16,400 1,650 Climbing FAA TRACON SMA TRACON (SMA)
Thu 06:43:59 AM 39.4231 -75.3417 187° South 368 423 17,100 2,049 Climbing FAA TRACON SMA TRACON (SMA)
Thu 06:44:20 AM 39.3911 -75.3481 189° South 372 428 17,800 1,500 Climbing FAA TRACON SMA TRACON (SMA)
Thu 06:44:39 AM 39.3631 -75.3503 184° South 374 430 18,100 980 Climbing FAA TRACON SMA TRACON (SMA)
Thu 06:46:47 AM 39.1425 -75.3908 188° South 375 432 20,200 1,245 Climbing Washington Center
Thu 06:47:47 AM 39.0403 -75.4258 195° South 375 432 22,000 1,800 Climbing Washington Center
Thu 06:48:47 AM 38.9342 -75.4742 200° South 393 452 23,800 1,800 Climbing Washington Center
Thu 06:49:47 AM 38.8278 -75.5225 199° South 406 467 25,600 1,800 Climbing Washington Center
Thu 06:50:47 AM 38.7153 -75.5758 200° South 419 482 27,400 1,800 Climbing Washington Center
Thu 06:51:47 AM 38.6028 -75.6236 198° South 424 488 29,200 1,800 Climbing Washington Center
Thu 06:52:47 AM 38.4900 -75.6819 202° Southwest 429 494 31,000 1,750 Climbing Washington Center
Thu 06:53:47 AM 38.3817 -75.7242 197° South 429 494 32,700 1,800 Climbing Washington Center
Thu 06:54:47 AM 38.2544 -75.7822 200° South 434 499 34,600 1,650 Climbing Washington Center
Thu 06:55:47 AM 38.1458 -75.8319 200° South 434 499 36,000 1,450 Climbing Washington Center
Thu 06:56:47 AM 38.0372 -75.8817 200° South 428 493 37,500 1,250 Climbing Washington Center
Thu 06:57:47 AM 37.9267 -75.9289 199° South 423 487 38,500 850 Climbing Washington Center
Thu 06:58:47 AM 37.8158 -75.9808 200° South 423 487 39,200 700 Climbing Washington Center
Thu 06:59:47 AM 37.7072 -76.0381 203° Southwest 428 493 39,900 400 Climbing Washington Center
Thu 07:00:47 AM 37.5903 -76.0872 198° South 433 498 40,000 50 Climbing Washington Center
Thu 07:01:47 AM 37.4733 -76.1414 200° South 438 504 40,000  Level Washington Center
Thu 07:02:47 AM 37.3500 -76.1875 197° South 456 525 40,000  Level Washington Center
Thu 07:03:47 AM 37.2286 -76.2414 199° South 456 525 40,000  Level Washington Center
Thu 07:04:47 AM 37.1117 -76.2950 200° South 456 525 40,000  Level Washington Center
Thu 07:05:47 AM 36.9922 -76.3461 199° South 456 525 40,000  Level Washington Center
Thu 07:06:47 AM 36.8731 -76.3967 199° South 456 525 40,000  Level Washington Center
Thu 07:07:47 AM 36.7558 -76.4500 200° South 450 518 40,000  Level Washington Center
Thu 07:08:47 AM 36.6492 -76.5006 201° Southwest 450 518 40,000  Level Washington Center
Thu 07:09:47 AM 36.5319 -76.5508 199° South 450 518 40,000  Level Washington Center
Thu 07:10:47 AM 36.4125 -76.6011 199° South 450 518 40,000  Level Washington Center
Thu 07:11:47 AM 36.2953 -76.6511 199° South 450 518 40,000  Level Washington Center
Thu 07:12:47 AM 36.1758 -76.7036 200° South 450 518 40,000  Level Washington Center
Thu 07:13:47 AM 36.0586 -76.7508 198° South 450 518 40,000  Level Washington Center
Thu 07:14:47 AM 35.9392 -76.8003 199° South 445 512 40,000  Level Washington Center
Thu 07:15:47 AM 35.8239 -76.8497 199° South 445 512 40,000  Level Washington Center
Thu 07:16:47 AM 35.7067 -76.8967 198° South 445 512 40,000 200 Level Washington Center
Thu 07:17:47 AM 35.5808 -76.9533 200° South 443 510 40,400 500 Climbing Washington Center
Thu 07:18:47 AM 35.4697 -76.9997 199° South 438 504 41,000 650 Climbing Washington Center
Thu 07:19:47 AM 35.3544 -77.0461 198° South 433 498 41,700 700 Climbing Washington Center
Thu 07:20:47 AM 35.2453 -77.0950 200° South 428 493 42,400 650 Climbing Washington Center
Thu 07:21:47 AM 35.1361 -77.1389 198° South 423 487 43,000 300 Climbing Washington Center
Thu 07:22:47 AM 35.0397 -77.1800 199° South 423 487 43,000  Level Washington Center
Thu 07:23:47 AM 34.9286 -77.2261 199° South 418 481 43,000  Level Washington Center
Thu 07:24:47 AM 34.8089 -77.2767 199° South 418 481 43,000  Level Washington Center
Thu 07:25:47 AM 34.6933 -77.3225 198° South 423 487 43,000  Level Washington Center
Thu 07:26:47 AM 34.5822 -77.3706 200° South 429 494 43,000  Level Washington Center
Thu 07:27:47 AM 34.4708 -77.4158 199° South 424 488 43,000  Level Washington Center
Thu 07:28:47 AM 34.3597 -77.4611 199° South 424 488 43,000  Level Washington Center
Thu 07:29:47 AM 34.2461 -77.5064 198° South 424 488 43,000  Level Washington Center
Thu 07:31:19 AM 34.0831 -77.5697 198° South 432 497 43,000  Level Jacksonville Center
Thu 07:32:19 AM 33.9722 -77.6167 199° South 432 497 43,000  Level Jacksonville Center
Thu 07:33:19 AM 33.8614 -77.6608 198° South 432 497 43,000  Level Jacksonville Center
Thu 07:34:19 AM 33.7486 -77.7075 199° South 434 499 43,000  Level Jacksonville Center
Thu 07:35:19 AM 33.6378 -77.7514 198° South 434 499 43,000  Level Jacksonville Center
Thu 07:36:19 AM 33.5269 -77.7953 198° South 429 494 43,000  Level Jacksonville Center
Thu 07:37:19 AM 33.4158 -77.8389 198° South 429 494 43,000  Level Jacksonville Center
Thu 07:38:19 AM 33.3008 -77.8853 199° South 429 494 43,000  Level Jacksonville Center
Thu 07:39:19 AM 33.1900 -77.9311 199° South 429 494 43,000  Level Jacksonville Center
Thu 07:40:21 AM 33.0789 -77.9719 197° South 429 494 43,000  Level Jacksonville Center
Thu 07:41:19 AM 32.9661 -78.0178 199° South 429 494 43,000  Level Jacksonville Center
Thu 07:42:19 AM 32.8528 -78.0611 198° South 429 494 43,000  Level Jacksonville Center
Thu 07:43:19 AM 32.7400 -78.1089 200° South 429 494 43,000  Level Jacksonville Center
Thu 07:44:19 AM 32.6186 -78.1550 198° South 429 494 43,000  Level Jacksonville Center
Thu 07:45:19 AM 32.5053 -78.1953 197° South 429 494 43,000  Level Jacksonville Center
Thu 07:46:19 AM 32.3922 -78.2406 199° South 435 501 43,000  Level Jacksonville Center
Thu 07:47:19 AM 32.2811 -78.2878 200° South 435 501 43,000  Level Jacksonville Center
Thu 07:48:19 AM 32.1639 -78.3331 198° South 435 501 43,000  Level Jacksonville Center
Thu 07:49:19 AM 32.0506 -78.3778 198° South 435 501 43,000  Level Jacksonville Center
Thu 07:50:19 AM 31.9353 -78.4203 197° South 435 501 43,000  Level Jacksonville Center
Thu 07:51:19 AM 31.8219 -78.4650 199° South 435 501 43,000  Level Jacksonville Center
Thu 07:52:19 AM 31.7047 -78.5119 199° South 435 501 43,000  Level Jacksonville Center
Thu 07:53:19 AM 31.5911 -78.5539 197° South 435 501 43,000  Level Jacksonville Center
Thu 07:54:19 AM 31.4758 -78.5983 198° South 435 501 43,000  Level Jacksonville Center
Thu 07:55:19 AM 31.3606 -78.6450 199° South 437 503 43,000  Level Jacksonville Center
Thu 07:56:19 AM 31.2492 -78.6839 197° South 437 503 43,000  Level Jacksonville Center
Thu 07:58:27 AM 31.0156 -78.7736 198° South 431 496 43,000  Level Miami Center
Thu 07:59:27 AM 30.9003 -78.8175 198° South 436 502 43,000  Level Miami Center
Thu 08:00:27 AM 30.7747 -78.8658 198° South 436 502 43,000  Level Miami Center
Thu 08:01:27 AM 30.6639 -78.9022 196° South 445 512 43,000  Level Miami Center
Thu 08:02:27 AM 30.5528 -78.9483 200° South 440 506 43,000  Level Miami Center
Thu 08:03:27 AM 30.4433 -79.0039 204° Southwest 446 513 43,000  Level Miami Center
Thu 08:04:27 AM 30.3261 -79.0422 196° South 446 513 43,000  Level Miami Center
Thu 08:05:27 AM 30.2108 -79.0903 200° South 446 513 43,000  Level Miami Center
Thu 08:06:27 AM 30.0994 -79.1431 202° Southwest 440 506 43,000  Level Miami Center
Thu 08:07:27 AM 29.9881 -79.1958 202° Southwest 440 506 43,000  Level Miami Center
Thu 08:08:27 AM 29.8828 -79.2678 211° Southwest 434 499 43,000  Level Miami Center
Thu 08:09:27 AM 29.7875 -79.3469 216° Southwest 434 499 43,000  Level Miami Center
Thu 08:10:27 AM 29.6839 -79.4186 211° Southwest 439 505 43,000  Level Miami Center
Thu 08:11:27 AM 29.5844 -79.4972 215° Southwest 439 505 43,000 -100 Level Miami Center
Thu 08:12:27 AM 29.4811 -79.5711 212° Southwest 446 513 42,800 -1,050 Descending Miami Center
Thu 08:13:27 AM 29.3814 -79.6494 214° Southwest 446 513 40,900 -2,000 Descending Miami Center
Thu 08:14:27 AM 29.2797 -79.7256 213° Southwest 446 513 38,800 -1,950 Descending Miami Center
Thu 08:15:27 AM 29.1803 -79.7989 213° Southwest 446 513 37,000 -1,900 Descending Miami Center
Thu 08:16:27 AM 29.0764 -79.8769 213° Southwest 440 506 35,000 -2,050 Descending Miami Center
Thu 08:17:27 AM 28.9725 -79.9522 212° Southwest 452 520 32,900 -2,050 Descending Miami Center
Thu 08:18:27 AM 28.8667 -80.0300 213° Southwest 452 520 30,900 -2,000 Descending Miami Center
Thu 08:19:27 AM 28.7606 -80.1075 213° Southwest 452 520 28,900 -2,050 Descending Miami Center
Thu 08:20:27 AM 28.6522 -80.1917 214° Southwest 447 514 26,800 -1,900 Descending Miami Center
Thu 08:21:27 AM 28.5653 -80.2553 213° Southwest 431 496 25,100 -1,450 Descending Miami Center
Thu 08:22:27 AM 28.4817 -80.3403 222° Southwest 413 475 23,900 -1,500 Descending Miami Center
Thu 08:23:27 AM 28.4306 -80.4636 245° Southwest 389 448 22,100 -1,700 Descending Miami Center
Thu 08:24:27 AM 28.3839 -80.5778 245° Southwest 399 459 20,500 -1,050 Descending Miami Center
Thu 08:25:27 AM 28.3414 -80.6897 247° West 399 459 20,000 -250 Descending Miami Center
Thu 08:26:27 AM 28.2944 -80.8011 244° Southwest 394 453 20,000  Level Miami Center
Thu 08:27:27 AM 28.2456 -80.9125 244° Southwest 399 459 20,000  Level Miami Center
Thu 08:28:27 AM 28.2047 -81.0267 248° West 399 459 20,000  Level Miami Center
Thu 08:29:27 AM 28.1622 -81.1261 244° Southwest 399 459 20,000  Level Miami Center
Thu 08:30:27 AM 28.1106 -81.2489 245° Southwest 394 453 20,000  Level Miami Center
Thu 08:31:27 AM 28.0631 -81.3600 244° Southwest 394 453 20,000  Level Miami Center
Thu 08:32:27 AM 27.9872 -81.4511 227° Southwest 399 459 20,000 -200 Level Miami Center
Thu 08:33:27 AM 27.9072 -81.5347 223° Southwest 404 465 19,600 -950 Descending Miami Center
Thu 08:34:27 AM 27.8022 -81.5561 190° South 371 427 18,100 -1,300 Descending Miami Center
Thu 08:35:27 AM 27.6961 -81.5494 177° South 371 427 17,000 -550 Descending Miami Center
Thu 08:36:27 AM 27.5900 -81.5406 176° South 377 434 17,000  Level Miami Center
Thu 08:37:27 AM 27.5047 -81.5300 174° South 383 441 17,000  Level Miami Center
Thu 08:38:27 AM 27.3861 -81.5206 176° South 388 447 17,000 -900 Level Miami Center
Thu 08:39:27 AM 27.2842 -81.5094 174° South 383 441 15,200 -1,850 Descending Miami Center
Thu 08:40:27 AM 27.1822 -81.5006 176° South 378 435 13,300 -1,850 Descending Miami Center
Thu 08:41:27 AM 27.0844 -81.4919 176° South 365 420 11,500 -1,650 Descending Miami Center
Thu 08:42:27 AM 26.9911 -81.4719 169° South 352 405 10,000 -750 Descending Miami Center
Thu 08:43:27 AM 26.8964 -81.4239 156° South 340 391 10,000  Level Miami Center
Thu 08:44:27 AM 26.8103 -81.3811 156° South 340 391 10,000  Level Miami Center
Thu 08:45:27 AM 26.7203 -81.3844 182° South 323 372 10,000 -650 Level Miami Center
Thu 08:46:27 AM 26.6589 -81.4147 204° Southwest 289 333 8,700 -1,500 Descending Miami Center
Thu 08:47:27 AM 26.6061 -81.4939 233° Southwest 277 319 7,000 -1,600 Descending Miami Center
Thu 08:48:27 AM 26.5603 -81.5594 232° Southwest 277 319 5,500 -1,500 Descending Miami Center
Thu 08:50:00 AM 26.5333 -81.7500 318° Northwest  Level FlightAware Approximate
Thu 08:57:00 AM 26.5362 -81.7552 318° Northwest  Level Estimated
Thu 08:58:00 AM 26.5333 -81.7500 318° Northwest  Level FlightAware Approximate
Thu 08:59:00 AM 26.5362 -81.7552 318° Northwest  Level Estimated
Thu 09:00:00 AM 26.5333 -81.7500 318° Northwest  Level FlightAware Approximate
Thu 09:01:00 AM 26.5362 -81.7552 318° Northwest  Level Estimated
Thu 09:02:00 AM 26.5333 -81.7500 318° Northwest  Level FlightAware Approximate
Thu 09:03:00 AM 26.5362 -81.7552 318° Northwest  Level Estimated
Thu 09:04:00 AM 26.5333 -81.7500 318° Northwest  Level FlightAware Approximate
Thu 09:05:00 AM 26.5362 -81.7552 318° Northwest  Level Estimated
Thu 09:06:00 AM 26.5333 -81.7500 318° Northwest  Level FlightAware Approximate
Thu 09:07:00 AM 26.5362 -81.7552 318° Northwest  Level Estimated

Login

Don't have an account? Register now (free) for customized features, flight alerts, and more!